Time;durP1;ratioP1;P1;durP2;ratioP2;P2;SDS_P1;SDS_P2;PMS_P1;PMS_P2;Temp;Humidity;BMP_temperature;BMP_pressure;BME280_temperature;BME280_humidity;BME280_pressure;Samples;Min_cycle;Max_cycle;Signal;HPM_P1;HPM_P2
2022/06/22 00:00:13;;;;;;;6.00;5.40;;;;;;;;;;5053271;28;20481;-77
2022/06/22 00:02:42;;;;;;;6.17;5.50;;;;;;;;;;5072362;28;20448;-76
2022/06/22 00:05:14;;;;;;;5.63;5.23;;;;;;;;;;5073279;28;20433;-76
2022/06/22 00:07:43;;;;;;;5.90;5.40;;;;;;;;;;5073036;28;20444;-77
2022/06/22 00:10:17;;;;;;;6.40;5.90;;;;;;;;;;5073129;28;20480;-77
2022/06/22 00:12:48;;;;;;;6.13;5.63;;;;;;;;;;5072975;28;20432;-76
2022/06/22 00:15:22;;;;;;;6.50;5.90;;;;;;;;;;5073337;28;20532;-77
2022/06/22 00:17:49;;;;;;;7.70;7.00;;;;;;;;;;5073360;28;20449;-76
2022/06/22 00:20:21;;;;;;;7.00;6.50;;;;;;;;;;5073523;28;21002;-79
2022/06/22 00:22:50;;;;;;;7.17;6.57;;;;;;;;;;5073892;28;20826;-78
2022/06/22 00:25:22;;;;;;;7.80;6.80;;;;;;;;;;5073456;28;20448;-77
2022/06/22 00:27:49;;;;;;;7.00;6.50;;;;;;;;;;5073376;28;20444;-77
2022/06/22 00:30:27;;;;;;;8.30;6.90;;;;;;;;;;5073415;28;20491;-77
2022/06/22 00:32:55;;;;;;;6.83;6.33;;;;;;;;;;5072954;28;20464;-77
2022/06/22 00:35:37;;;;;;;7.63;6.10;;;;;;;;;;5073224;28;20519;-77
2022/06/22 00:38:04;;;;;;;7.40;6.80;;;;;;;;;;5073324;28;20448;-77
2022/06/22 00:40:32;;;;;;;7.30;6.70;;;;;;;;;;5073584;28;20506;-77
2022/06/22 00:42:59;;;;;;;7.03;6.63;;;;;;;;;;5073162;28;20437;-77
2022/06/22 00:45:28;;;;;;;8.20;7.40;;;;;;;;;;5073625;28;20501;-78
2022/06/22 00:47:56;;;;;;;7.80;7.00;;;;;;;;;;5073513;28;20441;-77
2022/06/22 00:50:24;;;;;;;7.60;7.00;;;;;;;;;;5073467;28;20507;-77
2022/06/22 00:52:53;;;;;;;7.50;6.80;;;;;;;;;;5061142;28;20453;-77
2022/06/22 00:55:23;;;;;;;6.90;6.30;;;;;;;;;;5073564;28;20461;-76
2022/06/22 00:57:55;;;;;;;8.20;7.50;;;;;;;;;;5073199;28;20510;-76
2022/06/22 01:00:24;;;;;;;7.20;6.60;;;;;;;;;;5073530;28;20460;-77
2022/06/22 01:02:53;;;;;;;7.27;6.80;;;;;;;;;;5072791;28;20452;-75
2022/06/22 01:05:23;;;;;;;7.23;6.67;;;;;;;;;;5072855;28;20449;-76
2022/06/22 01:07:54;;;;;;;7.83;7.33;;;;;;;;;;5072686;28;20950;-75
2022/06/22 01:10:24;;;;;;;7.40;6.70;;;;;;;;;;5073056;28;20480;-76
2022/06/22 01:12:54;;;;;;;8.13;7.43;;;;;;;;;;5072857;28;20445;-77
2022/06/22 01:15:23;;;;;;;8.10;7.30;;;;;;;;;;5072870;28;20436;-77
2022/06/22 01:17:53;;;;;;;7.60;7.10;;;;;;;;;;5072948;28;20437;-77
2022/06/22 01:20:26;;;;;;;7.63;7.03;;;;;;;;;;5072760;28;20488;-77
2022/06/22 01:23:04;;;;;;;8.17;7.57;;;;;;;;;;5072317;28;20437;-77
2022/06/22 01:25:43;;;;;;;8.60;7.70;;;;;;;;;;5072523;28;20785;-78
2022/06/22 01:28:13;;;;;;;9.67;8.27;;;;;;;;;;5072319;28;20433;-77
2022/06/22 01:30:41;;;;;;;8.20;7.70;;;;;;;;;;5072606;28;20485;-77
2022/06/22 01:33:09;;;;;;;8.80;8.10;;;;;;;;;;5071958;28;20452;-77
2022/06/22 01:35:39;;;;;;;7.83;7.30;;;;;;;;;;5072082;28;20451;-76
2022/06/22 01:38:13;;;;;;;7.43;6.83;;;;;;;;;;5071903;28;20452;-77
2022/06/22 01:40:45;;;;;;;7.00;6.50;;;;;;;;;;5072059;28;20467;-76
2022/06/22 01:43:19;;;;;;;7.90;7.30;;;;;;;;;;5071864;28;20562;-76
2022/06/22 01:45:49;;;;;;;8.07;7.37;;;;;;;;;;5072035;28;20429;-77
2022/06/22 01:48:19;;;;;;;7.77;7.17;;;;;;;;;;5070077;28;20492;-77
2022/06/22 01:50:48;;;;;;;9.00;8.20;;;;;;;;;;5066857;28;20487;-77
2022/06/22 01:53:18;;;;;;;11.00;7.87;;;;;;;;;;5071837;28;20575;-76
2022/06/22 01:55:49;;;;;;;8.47;7.87;;;;;;;;;;5071955;28;20437;-77
2022/06/22 01:58:34;;;;;;;9.57;8.87;;;;;;;;;;5072016;28;20858;-76
2022/06/22 02:01:03;;;;;;;9.07;8.27;;;;;;;;;;5072274;28;20513;-77
2022/06/22 02:03:33;;;;;;;9.33;8.50;;;;;;;;;;5071528;28;20684;-77
2022/06/22 02:07:44;;;;;;;9.93;9.23;;;;;;;;;;5072054;28;20448;-77
2022/06/22 02:08:51;;;;;;;9.97;9.07;;;;;;;;;;5071315;28;20453;-77
2022/06/22 02:11:21;;;;;;;9.83;9.10;;;;;;;;;;5071642;28;20468;-77
2022/06/22 02:13:53;;;;;;;8.33;7.70;;;;;;;;;;5071858;28;20479;-77
2022/06/22 02:16:22;;;;;;;9.83;8.93;;;;;;;;;;5072212;28;20485;-76
2022/06/22 02:18:51;;;;;;;8.97;8.07;;;;;;;;;;5071932;28;20437;-77
2022/06/22 02:21:20;;;;;;;9.30;8.50;;;;;;;;;;5071859;28;20526;-77
2022/06/22 02:23:49;;;;;;;9.00;8.33;;;;;;;;;;5066024;28;20939;-77
2022/06/22 02:26:18;;;;;;;9.40;8.60;;;;;;;;;;5071350;28;20456;-77
2022/06/22 02:28:45;;;;;;;9.80;8.90;;;;;;;;;;5071777;28;20436;-77
2022/06/22 02:31:14;;;;;;;9.73;9.03;;;;;;;;;;5071939;28;20530;-77
2022/06/22 02:33:42;;;;;;;9.63;8.90;;;;;;;;;;5080371;28;20562;-77
2022/06/22 02:36:10;;;;;;;8.87;8.27;;;;;;;;;;5074658;28;20759;-77
2022/06/22 02:38:37;;;;;;;9.77;8.77;;;;;;;;;;5071890;28;20494;-77
2022/06/22 02:46:37;;;;;;;9.93;9.30;;;;;;;;;;5071498;28;20420;-77
2022/06/22 02:49:07;;;;;;;12.20;8.90;;;;;;;;;;5072928;28;20494;-77
2022/06/22 02:51:37;;;;;;;9.63;8.93;;;;;;;;;;5071599;28;20825;-76
2022/06/22 02:54:05;;;;;;;10.37;9.47;;;;;;;;;;5071574;28;20491;-77
2022/06/22 02:56:34;;;;;;;10.90;9.80;;;;;;;;;;5071776;28;20448;-77
2022/06/22 02:59:01;;;;;;;11.13;9.90;;;;;;;;;;5074454;28;20445;-76
2022/06/22 03:01:29;;;;;;;9.37;8.67;;;;;;;;;;5077425;28;20456;-77
2022/06/22 03:03:59;;;;;;;9.87;9.13;;;;;;;;;;5079563;28;20559;-76
2022/06/22 03:06:27;;;;;;;10.33;9.53;;;;;;;;;;5079809;28;20444;-77
2022/06/22 03:08:55;;;;;;;10.70;9.80;;;;;;;;;;5080537;28;20821;-77
2022/06/22 03:11:22;;;;;;;11.73;9.40;;;;;;;;;;5079993;28;20472;-76
2022/06/22 03:13:51;;;;;;;9.77;8.80;;;;;;;;;;5078799;28;20437;-77
2022/06/22 03:16:22;;;;;;;10.37;9.50;;;;;;;;;;5079404;28;20865;-76
2022/06/22 03:18:50;;;;;;;10.33;9.53;;;;;;;;;;5085717;28;20432;-76
2022/06/22 03:21:19;;;;;;;9.80;9.10;;;;;;;;;;5087389;28;20540;-77
2022/06/22 03:23:50;;;;;;;9.47;8.80;;;;;;;;;;5077218;28;20447;-78
2022/06/22 03:26:20;;;;;;;10.33;9.60;;;;;;;;;;5079159;28;20948;-78
2022/06/22 03:28:49;;;;;;;10.53;9.53;;;;;;;;;;5079182;28;20525;-78
2022/06/22 03:31:22;;;;;;;11.17;10.30;;;;;;;;;;5088723;28;20477;-77
2022/06/22 03:33:51;;;;;;;11.20;10.10;;;;;;;;;;5092227;28;20425;-76
2022/06/22 03:36:21;;;;;;;10.50;9.70;;;;;;;;;;5084723;28;20482;-77
2022/06/22 03:38:50;;;;;;;11.10;10.20;;;;;;;;;;5079790;28;20877;-77
2022/06/22 03:41:19;;;;;;;10.53;9.73;;;;;;;;;;5076193;28;20467;-76
2022/06/22 03:43:49;;;;;;;11.63;10.73;;;;;;;;;;5070201;28;20441;-77
2022/06/22 03:46:18;;;;;;;11.27;10.03;;;;;;;;;;5074742;28;20466;-77
2022/06/22 03:48:47;;;;;;;11.17;10.10;;;;;;;;;;5074359;28;20448;-76
2022/06/22 03:51:16;;;;;;;10.90;9.80;;;;;;;;;;5074102;28;20506;-77
2022/06/22 03:53:48;;;;;;;10.60;9.70;;;;;;;;;;5073638;28;20452;-77
2022/06/22 03:56:17;;;;;;;10.97;10.17;;;;;;;;;;5074311;28;20460;-77
2022/06/22 03:58:45;;;;;;;11.00;9.90;;;;;;;;;;5074407;28;20444;-77
2022/06/22 04:01:12;;;;;;;10.47;9.30;;;;;;;;;;5074197;28;20456;-77
2022/06/22 04:03:40;;;;;;;10.33;9.53;;;;;;;;;;5074640;28;20445;-77
2022/06/22 04:06:07;;;;;;;10.63;9.83;;;;;;;;;;5074026;28;20497;-77
2022/06/22 04:08:35;;;;;;;11.10;10.00;;;;;;;;;;5074303;28;20444;-77
2022/06/22 04:11:05;;;;;;;10.63;9.83;;;;;;;;;;5074285;28;20476;-77
2022/06/22 04:13:35;;;;;;;10.40;9.60;;;;;;;;;;5073132;28;20432;-77
2022/06/22 04:16:04;;;;;;;10.33;9.53;;;;;;;;;;5073679;28;20449;-77
2022/06/22 04:18:34;;;;;;;11.50;10.33;;;;;;;;;;5073915;28;20542;-78
2022/06/22 04:21:03;;;;;;;13.20;10.50;;;;;;;;;;5074275;28;20515;-77
2022/06/22 04:23:33;;;;;;;10.13;9.20;;;;;;;;;;5072312;28;20466;-76
2022/06/22 04:26:01;;;;;;;9.97;9.00;;;;;;;;;;5069167;28;20924;-78
2022/06/22 04:28:32;;;;;;;9.33;8.53;;;;;;;;;;5064570;28;20510;-77
2022/06/22 04:30:59;;;;;;;9.40;8.73;;;;;;;;;;5056505;28;20489;-77
2022/06/22 04:33:30;;;;;;;10.17;9.20;;;;;;;;;;5053449;28;20458;-77
2022/06/22 04:36:00;;;;;;;10.80;9.00;;;;;;;;;;5053881;28;20486;-78
2022/06/22 04:38:29;;;;;;;9.90;8.97;;;;;;;;;;5054029;28;20505;-77
2022/06/22 04:40:59;;;;;;;10.33;9.53;;;;;;;;;;5053984;28;20466;-77
2022/06/22 04:43:27;;;;;;;11.10;8.83;;;;;;;;;;5053633;28;20445;-78
2022/06/22 04:45:56;;;;;;;12.13;9.03;;;;;;;;;;5053576;28;20449;-77
2022/06/22 04:48:24;;;;;;;9.33;8.70;;;;;;;;;;5053536;28;20450;-77
2022/06/22 04:50:53;;;;;;;9.83;8.93;;;;;;;;;;5053950;28;20484;-77
2022/06/22 04:53:22;;;;;;;9.80;9.10;;;;;;;;;;5058183;28;20445;-77
2022/06/22 04:55:50;;;;;;;10.27;9.20;;;;;;;;;;5072775;28;20436;-77
2022/06/22 04:58:25;;;;;;;23.53;10.20;;;;;;;;;;5072612;28;20433;-77
2022/06/22 05:00:53;;;;;;;10.37;9.57;;;;;;;;;;5072410;28;20876;-77
2022/06/22 05:03:21;;;;;;;10.93;10.03;;;;;;;;;;5072514;28;20448;-78
2022/06/22 05:05:48;;;;;;;11.43;10.50;;;;;;;;;;5072734;28;20834;-76
2022/06/22 05:08:19;;;;;;;13.13;10.30;;;;;;;;;;5072657;28;20498;-77
2022/06/22 05:10:48;;;;;;;10.37;9.50;;;;;;;;;;5072807;28;20489;-77
2022/06/22 05:13:17;;;;;;;10.83;9.93;;;;;;;;;;5073046;28;20436;-77
2022/06/22 05:15:46;;;;;;;11.13;10.03;;;;;;;;;;5072912;28;20481;-78
2022/06/22 05:18:14;;;;;;;9.83;8.93;;;;;;;;;;5073500;28;20494;-78
2022/06/22 05:20:46;;;;;;;10.10;9.30;;;;;;;;;;5072893;28;20570;-77
2022/06/22 05:23:14;;;;;;;10.10;9.30;;;;;;;;;;5072280;28;20464;-77
2022/06/22 05:25:43;;;;;;;10.00;9.20;;;;;;;;;;5072697;28;20437;-78
2022/06/22 05:28:13;;;;;;;9.93;9.23;;;;;;;;;;5073007;28;20553;-78
2022/06/22 05:30:41;;;;;;;10.90;9.77;;;;;;;;;;5072171;28;20468;-77
2022/06/22 05:33:11;;;;;;;9.83;9.03;;;;;;;;;;5072375;28;20905;-77
2022/06/22 05:35:42;;;;;;;10.63;9.63;;;;;;;;;;5072944;28;20441;-78
2022/06/22 05:38:11;;;;;;;9.80;8.90;;;;;;;;;;5074231;28;20513;-76
2022/06/22 05:40:39;;;;;;;10.53;9.50;;;;;;;;;;5073965;28;20510;-77
2022/06/22 05:43:07;;;;;;;9.73;8.80;;;;;;;;;;5073910;28;20513;-78
2022/06/22 05:45:37;;;;;;;10.90;10.00;;;;;;;;;;5074174;28;20457;-78
2022/06/22 05:48:05;;;;;;;9.60;8.90;;;;;;;;;;5073120;28;20425;-77
2022/06/22 05:50:38;;;;;;;11.30;9.47;;;;;;;;;;5072942;28;20514;-76
2022/06/22 05:53:12;;;;;;;10.93;9.87;;;;;;;;;;5072554;28;20480;-77
2022/06/22 05:55:46;;;;;;;10.53;9.53;;;;;;;;;;5072381;28;20437;-77
2022/06/22 05:58:16;;;;;;;11.10;10.17;;;;;;;;;;5072410;28;20531;-77
2022/06/22 06:00:44;;;;;;;11.63;10.50;;;;;;;;;;5072204;28;20461;-78
2022/06/22 06:03:15;;;;;;;11.43;10.30;;;;;;;;;;5072023;28;20480;-79
2022/06/22 06:05:45;;;;;;;17.40;10.77;;;;;;;;;;5072566;28;20466;-76
2022/06/22 06:08:21;;;;;;;11.60;10.50;;;;;;;;;;5067279;28;20597;-77
2022/06/22 06:10:49;;;;;;;10.90;9.90;;;;;;;;;;5051880;28;21072;-77
2022/06/22 06:13:21;;;;;;;11.27;10.33;;;;;;;;;;5051427;28;20477;-78
2022/06/22 06:15:50;;;;;;;11.67;10.23;;;;;;;;;;5051634;28;20430;-77
2022/06/22 06:18:18;;;;;;;12.33;11.13;;;;;;;;;;5051835;28;20438;-77
2022/06/22 06:20:48;;;;;;;12.63;11.30;;;;;;;;;;5051465;28;20469;-78
2022/06/22 06:23:17;;;;;;;12.63;11.47;;;;;;;;;;5051371;28;20435;-77
2022/06/22 06:28:35;;;;;;;10.53;9.83;;;;;;;;;;5051293;28;20842;-78
2022/06/22 06:31:06;;;;;;;10.90;9.80;;;;;;;;;;5051454;28;20473;-77
2022/06/22 06:33:35;;;;;;;9.80;9.00;;;;;;;;;;5050927;28;20517;-77
2022/06/22 06:36:06;;;;;;;10.30;9.40;;;;;;;;;;5051064;28;20464;-76
2022/06/22 06:38:36;;;;;;;10.20;9.30;;;;;;;;;;5051630;28;20522;-77
2022/06/22 06:41:04;;;;;;;10.50;9.63;;;;;;;;;;5051377;28;20667;-79
2022/06/22 06:43:37;;;;;;;11.00;10.00;;;;;;;;;;5051676;28;20515;-77
2022/06/22 06:46:05;;;;;;;9.07;8.43;;;;;;;;;;5051726;28;20499;-79
2022/06/22 06:48:34;;;;;;;9.87;8.90;;;;;;;;;;5052786;28;20457;-77
2022/06/22 06:51:02;;;;;;;9.87;8.97;;;;;;;;;;5053361;28;20895;-78
2022/06/22 06:53:32;;;;;;;9.30;8.60;;;;;;;;;;5062907;28;20485;-77
2022/06/22 06:56:02;;;;;;;10.13;9.20;;;;;;;;;;5071852;28;20491;-77
2022/06/22 06:58:32;;;;;;;10.60;8.47;;;;;;;;;;5071605;28;20447;-77
2022/06/22 07:01:01;;;;;;;9.40;8.50;;;;;;;;;;5071530;28;20461;-78
2022/06/22 07:03:30;;;;;;;10.10;8.20;;;;;;;;;;5071365;28;20444;-75
2022/06/22 07:05:57;;;;;;;10.43;9.40;;;;;;;;;;5071272;28;20444;-77
2022/06/22 07:08:29;;;;;;;10.83;9.87;;;;;;;;;;5071591;28;20444;-79
2022/06/22 07:10:58;;;;;;;51.27;24.27;;;;;;;;;;5071458;28;20472;-78
2022/06/22 07:13:28;;;;;;;22.20;14.30;;;;;;;;;;5070935;28;20472;-76
2022/06/22 07:15:56;;;;;;;26.37;16.50;;;;;;;;;;5071332;28;20453;-78
2022/06/22 07:18:27;;;;;;;21.30;14.80;;;;;;;;;;5071925;28;20928;-78
2022/06/22 07:20:56;;;;;;;21.40;15.13;;;;;;;;;;5070794;28;20467;-77
2022/06/22 07:23:25;;;;;;;16.07;12.93;;;;;;;;;;5070739;28;20471;-78
2022/06/22 07:25:54;;;;;;;15.90;14.03;;;;;;;;;;5070884;28;20570;-78
2022/06/22 07:28:25;;;;;;;13.40;12.07;;;;;;;;;;5071294;28;20445;-77
2022/06/22 07:30:53;;;;;;;11.97;10.97;;;;;;;;;;5071448;28;20509;-77
2022/06/22 07:33:24;;;;;;;11.77;10.73;;;;;;;;;;5070560;28;20480;-77
2022/06/22 07:35:56;;;;;;;12.30;11.13;;;;;;;;;;5071089;28;20460;-78
2022/06/22 07:38:27;;;;;;;12.63;11.33;;;;;;;;;;5071161;28;20448;-78
2022/06/22 07:43:39;;;;;;;12.13;11.03;;;;;;;;;;5070662;28;20421;-77
2022/06/22 07:46:07;;;;;;;12.10;11.10;;;;;;;;;;5071101;28;20436;-76
2022/06/22 07:48:37;;;;;;;11.77;10.70;;;;;;;;;;5073387;28;20538;-77
2022/06/22 07:51:07;;;;;;;11.30;10.20;;;;;;;;;;5074391;28;20441;-76
2022/06/22 07:53:38;;;;;;;12.77;11.63;;;;;;;;;;5073955;28;20472;-77
2022/06/22 07:56:07;;;;;;;11.73;10.60;;;;;;;;;;5067357;28;20837;-77
2022/06/22 07:58:37;;;;;;;11.57;10.57;;;;;;;;;;5065157;28;20540;-77
2022/06/22 08:01:05;;;;;;;11.87;10.87;;;;;;;;;;5074296;28;20530;-77
2022/06/22 08:03:34;;;;;;;10.77;9.93;;;;;;;;;;5073426;28;20498;-76
2022/06/22 08:06:05;;;;;;;11.90;10.90;;;;;;;;;;5074305;28;20440;-78
2022/06/22 08:08:36;;;;;;;12.03;10.90;;;;;;;;;;5066616;28;20438;-77
2022/06/22 08:11:06;;;;;;;12.20;11.00;;;;;;;;;;5054742;28;20465;-78
2022/06/22 08:13:36;;;;;;;11.00;9.87;;;;;;;;;;5053836;28;20479;-77
2022/06/22 08:16:05;;;;;;;11.30;10.30;;;;;;;;;;5054151;28;20442;-79
2022/06/22 08:18:33;;;;;;;13.10;11.60;;;;;;;;;;5054003;28;21111;-78
2022/06/22 08:21:00;;;;;;;14.60;10.30;;;;;;;;;;5054300;28;20470;-78
2022/06/22 08:23:29;;;;;;;11.73;10.60;;;;;;;;;;5053833;28;20442;-76
2022/06/22 08:25:58;;;;;;;12.33;11.03;;;;;;;;;;5053987;28;20441;-78
2022/06/22 08:28:26;;;;;;;10.87;9.97;;;;;;;;;;5053796;28;20489;-78
2022/06/22 08:30:54;;;;;;;9.90;9.10;;;;;;;;;;5053785;28;21038;-78
2022/06/22 08:33:24;;;;;;;11.27;10.27;;;;;;;;;;5052993;28;20993;-78
2022/06/22 08:35:53;;;;;;;11.27;10.37;;;;;;;;;;5053374;28;20511;-77
2022/06/22 08:38:25;;;;;;;11.50;10.60;;;;;;;;;;5053293;28;20784;-77
2022/06/22 08:40:55;;;;;;;11.40;10.50;;;;;;;;;;5053111;28;20473;-78
2022/06/22 08:43:26;;;;;;;10.73;9.83;;;;;;;;;;5053252;28;20438;-77
2022/06/22 08:46:05;;;;;;;10.93;9.83;;;;;;;;;;5053602;28;20436;-76
2022/06/22 08:48:42;;;;;;;11.00;9.97;;;;;;;;;;5053713;28;20429;-77
2022/06/22 08:51:22;;;;;;;12.17;10.33;;;;;;;;;;5053569;28;20465;-78
2022/06/22 08:53:55;;;;;;;11.67;10.57;;;;;;;;;;5053284;28;20840;-78
2022/06/22 08:56:28;;;;;;;11.47;10.50;;;;;;;;;;5053733;28;20426;-78
2022/06/22 08:59:10;;;;;;;11.60;10.60;;;;;;;;;;5053545;28;20434;-77
2022/06/22 09:01:41;;;;;;;10.43;9.43;;;;;;;;;;5053022;28;20499;-78
2022/06/22 09:04:27;;;;;;;10.97;10.13;;;;;;;;;;5054847;28;20434;-77
2022/06/22 09:07:07;;;;;;;11.33;10.33;;;;;;;;;;5052635;28;20559;-77
2022/06/22 09:10:03;;;;;;;10.13;9.30;;;;;;;;;;5052687;28;20460;-78
2022/06/22 09:12:36;;;;;;;9.77;8.87;;;;;;;;;;5052850;28;20487;-77
2022/06/22 09:15:08;;;;;;;10.67;9.60;;;;;;;;;;5052620;28;20438;-76
2022/06/22 09:17:56;;;;;;;10.23;9.40;;;;;;;;;;5059868;28;20522;-77
2022/06/22 09:20:33;;;;;;;16.83;8.43;;;;;;;;;;5062075;28;21009;-78
2022/06/22 09:23:02;;;;;;;9.80;9.00;;;;;;;;;;5072591;28;20494;-78
2022/06/22 09:25:31;;;;;;;11.30;10.23;;;;;;;;;;5073663;28;20472;-78
2022/06/22 09:28:03;;;;;;;10.97;9.97;;;;;;;;;;5074762;28;20444;-77
2022/06/22 09:30:38;;;;;;;10.30;9.40;;;;;;;;;;5072449;28;21029;-77
2022/06/22 09:33:24;;;;;;;11.10;10.23;;;;;;;;;;5072755;28;20544;-78
2022/06/22 09:36:09;;;;;;;10.77;9.77;;;;;;;;;;5072202;28;21178;-77
2022/06/22 09:38:51;;;;;;;11.43;10.43;;;;;;;;;;5072770;28;20437;-77
2022/06/22 09:41:23;;;;;;;11.57;10.50;;;;;;;;;;5072838;28;20824;-78
2022/06/22 09:44:01;;;;;;;11.73;10.83;;;;;;;;;;5071460;28;20470;-77
2022/06/22 09:46:38;;;;;;;9.90;9.20;;;;;;;;;;5073182;28;20498;-78
2022/06/22 09:49:21;;;;;;;10.50;9.70;;;;;;;;;;5072169;28;20440;-78
2022/06/22 09:52:03;;;;;;;13.07;10.60;;;;;;;;;;5072058;28;20468;-77
2022/06/22 09:57:44;;;;;;;10.83;9.80;;;;;;;;;;5068093;28;20841;-78
2022/06/22 10:00:12;;;;;;;11.03;10.13;;;;;;;;;;5066238;28;20468;-77
2022/06/22 10:03:00;;;;;;;9.83;9.13;;;;;;;;;;5072909;28;20445;-78
2022/06/22 10:05:48;;;;;;;12.47;11.30;;;;;;;;;;5048947;28;20465;-77
2022/06/22 10:08:37;;;;;;;12.17;10.20;;;;;;;;;;5060015;28;20494;-78
2022/06/22 10:11:07;;;;;;;11.93;10.83;;;;;;;;;;5072436;28;20522;-79
2022/06/22 10:13:44;;;;;;;14.07;9.87;;;;;;;;;;5072163;28;20525;-78
2022/06/22 10:16:24;;;;;;;11.43;10.43;;;;;;;;;;5071687;28;20455;-77
2022/06/22 10:18:58;;;;;;;10.13;9.30;;;;;;;;;;5071279;28;20448;-76
2022/06/22 10:21:44;;;;;;;12.53;11.53;;;;;;;;;;5072483;28;20536;-77
2022/06/22 10:24:28;;;;;;;11.93;10.90;;;;;;;;;;5072876;28;20441;-77
2022/06/22 10:27:08;;;;;;;12.23;11.23;;;;;;;;;;5066014;28;20483;-76
2022/06/22 10:29:46;;;;;;;12.03;10.90;;;;;;;;;;5072581;28;20501;-76
2022/06/22 10:32:26;;;;;;;11.13;10.33;;;;;;;;;;5064813;28;20502;-77
2022/06/22 10:34:58;;;;;;;11.90;10.90;;;;;;;;;;5071588;28;20444;-77
2022/06/22 10:37:35;;;;;;;12.23;11.10;;;;;;;;;;5071221;28;20440;-77
2022/06/22 10:40:09;;;;;;;10.80;9.90;;;;;;;;;;5070968;28;20525;-75
2022/06/22 10:45:39;;;;;;;12.13;9.43;;;;;;;;;;5074335;28;20420;-78
2022/06/22 10:48:21;;;;;;;9.33;8.53;;;;;;;;;;5076719;28;20748;-76
2022/06/22 10:50:52;;;;;;;13.33;12.17;;;;;;;;;;5068796;28;20872;-76
2022/06/22 10:53:37;;;;;;;14.17;12.97;;;;;;;;;;5079661;28;20821;-78
2022/06/22 10:56:12;;;;;;;14.37;13.07;;;;;;;;;;5071170;28;20502;-78
2022/06/22 10:58:45;;;;;;;14.40;13.20;;;;;;;;;;5070196;28;20475;-77
2022/06/22 11:01:24;;;;;;;13.50;12.20;;;;;;;;;;5070610;28;20457;-78
2022/06/22 11:04:24;;;;;;;13.80;12.70;;;;;;;;;;5070292;28;20577;-78
2022/06/22 11:06:57;;;;;;;13.33;12.13;;;;;;;;;;5069648;28;20499;-77
2022/06/22 11:09:38;;;;;;;13.43;12.23;;;;;;;;;;5070350;28;20490;-78
2022/06/22 11:12:19;;;;;;;12.67;11.57;;;;;;;;;;5069953;28;20578;-77
2022/06/22 11:14:59;;;;;;;11.73;10.83;;;;;;;;;;5069932;28;20476;-77
2022/06/22 11:17:35;;;;;;;11.87;10.90;;;;;;;;;;5070819;28;21236;-76
2022/06/22 11:20:13;;;;;;;10.67;9.97;;;;;;;;;;5070760;28;20440;-77
2022/06/22 11:22:41;;;;;;;12.07;10.90;;;;;;;;;;5070995;28;20550;-76
2022/06/22 11:30:48;;;;;;;11.27;10.30;;;;;;;;;;5074291;28;20444;-78
2022/06/22 11:31:08;;;;;;;11.33;10.50;;;;;;;;;;5068522;28;20539;-77
2022/06/22 11:33:52;;;;;;;11.97;11.00;;;;;;;;;;5073310;28;20907;-77
2022/06/22 11:36:26;;;;;;;12.40;11.30;;;;;;;;;;5070054;28;20780;-77
2022/06/22 11:39:08;;;;;;;12.50;11.30;;;;;;;;;;5077839;28;20444;-77
2022/06/22 11:41:41;;;;;;;10.37;9.47;;;;;;;;;;5061913;28;20469;-77
2022/06/22 11:44:29;;;;;;;10.07;9.17;;;;;;;;;;5073482;28;20860;-76
2022/06/22 11:47:00;;;;;;;8.87;8.00;;;;;;;;;;5047605;28;20464;-76
2022/06/22 11:49:35;;;;;;;8.87;8.07;;;;;;;;;;5073798;28;20455;-77
2022/06/22 11:52:20;;;;;;;9.87;8.50;;;;;;;;;;5073444;28;20508;-77
2022/06/22 11:54:55;;;;;;;9.73;8.93;;;;;;;;;;5073486;28;20555;-78
2022/06/22 11:57:36;;;;;;;11.10;10.00;;;;;;;;;;5074346;28;20855;-77
2022/06/22 12:00:08;;;;;;;9.83;9.03;;;;;;;;;;5074831;28;20553;-77
2022/06/22 12:02:53;;;;;;;11.40;10.30;;;;;;;;;;5073914;28;20440;-78
2022/06/22 12:05:28;;;;;;;11.23;10.13;;;;;;;;;;5073647;28;20444;-78
2022/06/22 12:08:07;;;;;;;11.00;10.00;;;;;;;;;;5074481;28;20444;-79
2022/06/22 12:10:40;;;;;;;11.53;10.50;;;;;;;;;;5087412;28;20474;-77
2022/06/22 12:13:20;;;;;;;12.03;10.67;;;;;;;;;;5089159;28;20956;-76
2022/06/22 12:15:52;;;;;;;12.33;10.87;;;;;;;;;;5090351;28;20448;-77
2022/06/22 12:18:30;;;;;;;11.70;10.70;;;;;;;;;;5089976;28;20456;-77
2022/06/22 12:21:07;;;;;;;11.50;10.57;;;;;;;;;;5088853;28;20625;-76
2022/06/22 12:23:39;;;;;;;12.53;11.33;;;;;;;;;;5076749;28;20802;-77
2022/06/22 12:26:13;;;;;;;12.30;11.20;;;;;;;;;;5074249;28;20498;-78
2022/06/22 12:28:49;;;;;;;12.20;11.00;;;;;;;;;;5074315;28;20497;-77
2022/06/22 12:31:17;;;;;;;12.00;10.70;;;;;;;;;;5074440;28;20464;-77
2022/06/22 12:33:46;;;;;;;13.07;11.87;;;;;;;;;;5072757;28;20510;-78
2022/06/22 12:36:17;;;;;;;11.53;10.70;;;;;;;;;;5073930;28;20444;-76
2022/06/22 12:38:46;;;;;;;12.47;11.47;;;;;;;;;;5074010;28;20517;-76
2022/06/22 12:41:19;;;;;;;13.10;12.10;;;;;;;;;;5073589;28;20464;-76
2022/06/22 12:44:07;;;;;;;14.03;12.63;;;;;;;;;;5072942;28;20432;-78
2022/06/22 12:46:42;;;;;;;12.07;10.87;;;;;;;;;;5074776;28;20440;-75
2022/06/22 12:49:24;;;;;;;13.23;12.00;;;;;;;;;;5078173;28;20497;-76
2022/06/22 12:51:55;;;;;;;12.93;11.63;;;;;;;;;;5073118;28;20468;-77
2022/06/22 12:54:24;;;;;;;15.63;11.90;;;;;;;;;;5073917;28;20538;-76
2022/06/22 12:56:54;;;;;;;12.80;11.73;;;;;;;;;;5074607;28;20448;-76
2022/06/22 12:59:24;;;;;;;12.80;11.80;;;;;;;;;;5072611;28;20526;-77
2022/06/22 13:01:51;;;;;;;11.90;10.90;;;;;;;;;;5073260;28;20465;-76
2022/06/22 13:04:21;;;;;;;13.10;11.93;;;;;;;;;;5072843;28;20436;-76
2022/06/22 13:06:50;;;;;;;12.87;11.57;;;;;;;;;;5073228;28;20436;-77
2022/06/22 13:09:19;;;;;;;12.60;11.40;;;;;;;;;;5072498;28;20508;-77
2022/06/22 13:11:48;;;;;;;11.77;10.63;;;;;;;;;;5072473;28;20469;-77
2022/06/22 13:14:28;;;;;;;13.03;11.80;;;;;;;;;;5072158;28;20477;-77
2022/06/22 13:17:02;;;;;;;12.80;11.80;;;;;;;;;;5072633;28;20518;-77
2022/06/22 13:19:35;;;;;;;13.10;11.87;;;;;;;;;;5072582;28;20506;-77
2022/06/22 13:22:05;;;;;;;13.67;12.30;;;;;;;;;;5072372;28;20473;-76
2022/06/22 13:24:38;;;;;;;13.40;12.20;;;;;;;;;;5072153;28;20441;-77
2022/06/22 13:27:15;;;;;;;12.23;11.07;;;;;;;;;;5072694;28;20448;-77
2022/06/22 13:29:47;;;;;;;12.57;11.40;;;;;;;;;;5072141;28;20449;-77
2022/06/22 13:32:15;;;;;;;10.97;9.97;;;;;;;;;;5072307;28;20457;-77
2022/06/22 13:34:44;;;;;;;13.20;10.97;;;;;;;;;;5071662;28;20476;-77
2022/06/22 13:37:16;;;;;;;12.80;11.67;;;;;;;;;;5072204;28;20932;-77
2022/06/22 13:39:50;;;;;;;13.00;11.70;;;;;;;;;;5072467;28;20498;-76
2022/06/22 13:42:29;;;;;;;12.30;11.30;;;;;;;;;;5072642;28;20834;-77
2022/06/22 13:45:07;;;;;;;13.30;12.00;;;;;;;;;;5072833;28;20802;-77
2022/06/22 13:47:45;;;;;;;11.50;10.33;;;;;;;;;;5072789;28;20445;-78
2022/06/22 13:50:26;;;;;;;9.37;8.20;;;;;;;;;;5082950;28;20460;-76
2022/06/22 13:52:55;;;;;;;11.03;9.57;;;;;;;;;;5075726;28;21038;-76
2022/06/22 13:55:34;;;;;;;8.73;7.80;;;;;;;;;;5072499;28;20833;-76
2022/06/22 13:58:04;;;;;;;8.70;7.90;;;;;;;;;;5072550;28;20471;-76
2022/06/22 14:00:32;;;;;;;11.60;8.60;;;;;;;;;;5071772;28;21010;-78
2022/06/22 14:03:04;;;;;;;10.60;9.47;;;;;;;;;;5072495;28;20472;-77
2022/06/22 14:05:39;;;;;;;13.20;9.67;;;;;;;;;;5072693;28;21136;-76
2022/06/22 14:08:13;;;;;;;10.40;8.93;;;;;;;;;;5068346;28;20445;-77
2022/06/22 14:10:45;;;;;;;10.00;9.00;;;;;;;;;;5052149;28;20469;-77
2022/06/22 14:13:18;;;;;;;10.20;8.50;;;;;;;;;;5051602;28;20465;-76
2022/06/22 14:15:48;;;;;;;11.40;9.17;;;;;;;;;;5051514;28;21000;-76
2022/06/22 14:18:21;;;;;;;10.23;8.20;;;;;;;;;;5051992;28;20521;-78
2022/06/22 14:21:03;;;;;;;9.67;7.80;;;;;;;;;;5052047;28;20906;-77
2022/06/22 14:23:30;;;;;;;10.00;7.20;;;;;;;;;;5051444;28;20453;-77
2022/06/22 14:26:02;;;;;;;10.10;6.70;;;;;;;;;;5051997;28;20933;-79
2022/06/22 14:28:34;;;;;;;10.90;7.77;;;;;;;;;;5052095;28;20449;-77
2022/06/22 14:31:04;;;;;;;11.53;8.57;;;;;;;;;;5051928;28;20983;-78
2022/06/22 14:33:44;;;;;;;12.33;8.40;;;;;;;;;;5051772;28;20452;-77
2022/06/22 14:36:15;;;;;;;13.03;8.40;;;;;;;;;;5052387;28;20430;-76
2022/06/22 14:38:45;;;;;;;8.97;7.90;;;;;;;;;;5052277;28;20526;-77
2022/06/22 14:41:17;;;;;;;12.93;7.93;;;;;;;;;;5051590;28;20531;-78
2022/06/22 14:43:47;;;;;;;15.60;8.13;;;;;;;;;;5051462;28;20820;-77
2022/06/22 14:46:16;;;;;;;8.20;6.63;;;;;;;;;;5052249;28;20459;-77
2022/06/22 14:48:47;;;;;;;10.37;6.70;;;;;;;;;;5051950;28;20742;-77
2022/06/22 14:51:17;;;;;;;10.60;6.70;;;;;;;;;;5052494;28;20560;-77
2022/06/22 14:53:50;;;;;;;12.33;7.50;;;;;;;;;;5051872;28;20448;-78
2022/06/22 14:56:21;;;;;;;10.40;6.80;;;;;;;;;;5052442;28;20445;-78
2022/06/22 14:58:51;;;;;;;11.40;6.60;;;;;;;;;;5055741;28;20448;-78
2022/06/22 15:01:22;;;;;;;10.77;7.20;;;;;;;;;;5055598;28;20968;-77
2022/06/22 15:03:52;;;;;;;8.50;5.67;;;;;;;;;;5056302;28;20536;-79
2022/06/22 15:06:24;;;;;;;9.37;5.87;;;;;;;;;;5056674;28;20472;-77
2022/06/22 15:08:55;;;;;;;12.50;7.40;;;;;;;;;;5066036;28;20471;-77
2022/06/22 15:14:14;;;;;;;14.27;7.17;;;;;;;;;;5075210;28;20416;-77
2022/06/22 15:16:45;;;;;;;12.23;6.60;;;;;;;;;;5075638;28;20927;-78
2022/06/22 15:19:16;;;;;;;16.57;7.07;;;;;;;;;;5075550;28;20531;-78